CheckWX is a tool to help pilots better visualize weather data.  It is not intended as a substitute for an official pre-flight weather briefing.

20:47:40 UTC

EGPE METAR
Inverness Airport
Inverness, United Kingdom
Current

28 mins ago

EGPE 182020Z 23015KT 9999 -RA FEW012 SCT030 06/04 Q1000
Observed
Feb-18 @ 20:20 UTC
Wind
  • 230° at 15 KTS
Visibility
10,000+ meters
Flight Rules
VFR
Conditions
Light Rain
Cloud Levels
  • Few at 1,200' AGL
  • Scattered at 3,000' AGL
Temperature
C / 43°F
Dewpoint
C / 39°F
Humidity
87%
Altimeter
29.53" Hg
Pressure
999.92 hPa
Previous

58 mins ago

EGPE 181950Z 23012KT 9999 -RA FEW012 SCT030 05/04 Q0999
Observed
Feb-18 @ 19:50 UTC
Wind
  • 230° at 12 KTS
Visibility
10,000+ meters
Flight Rules
VFR
Conditions
Light Rain
Cloud Levels
  • Few at 1,200' AGL
  • Scattered at 3,000' AGL
Temperature
C / 41°F
Dewpoint
C / 39°F
Humidity
93%
Altimeter
29.5" Hg
Pressure
998.92 hPa
Previous

1 hour ago

EGPE 181920Z 22015KT 9999 FEW012 SCT023 06/04 Q0999
Observed
Feb-18 @ 19:20 UTC
Wind
  • 220° at 15 KTS
Visibility
10,000+ meters
Flight Rules
VFR
Cloud Levels
  • Few at 1,200' AGL
  • Scattered at 2,300' AGL
Temperature
C / 43°F
Dewpoint
C / 39°F
Humidity
87%
Altimeter
29.5" Hg
Pressure
998.92 hPa